createdAt,value
2022-08-23T00:00:00.192Z,101090
2022-08-23T00:01:00.177Z,101090
2022-08-23T00:02:01.444Z,101100
2022-08-23T00:03:00.243Z,101100
2022-08-23T00:04:08.279Z,101090
2022-08-23T00:05:09.301Z,101090
2022-08-23T00:06:00.510Z,101090
2022-08-23T00:07:00.605Z,101090
2022-08-23T00:08:00.330Z,101090
2022-08-23T00:09:00.421Z,101090
2022-08-23T00:10:00.170Z,101090
2022-08-23T00:11:00.157Z,101090
2022-08-23T00:12:07.597Z,101090
2022-08-23T00:13:00.217Z,101090
2022-08-23T00:14:02.654Z,101090
2022-08-23T00:15:00.158Z,101090
2022-08-23T00:16:00.153Z,101090
2022-08-23T00:17:00.206Z,101090
2022-08-23T00:18:00.364Z,101090
2022-08-23T00:19:00.930Z,101090
2022-08-23T00:20:01.144Z,101090
2022-08-23T00:21:00.154Z,101090
2022-08-23T00:22:00.171Z,101090
2022-08-23T00:23:00.200Z,101090
2022-08-23T00:24:00.151Z,101090
2022-08-23T00:25:00.174Z,101090
2022-08-23T00:26:00.503Z,101090
2022-08-23T00:27:00.138Z,101090
2022-08-23T00:28:00.343Z,101090
2022-08-23T00:29:00.156Z,101090
2022-08-23T00:30:00.724Z,101090
2022-08-23T00:31:00.161Z,101090
2022-08-23T00:32:00.471Z,101080
2022-08-23T00:33:00.181Z,101080
2022-08-23T00:34:00.162Z,101090
2022-08-23T00:35:00.481Z,101090
2022-08-23T00:36:00.323Z,101080
2022-08-23T00:37:00.161Z,101080
2022-08-23T00:38:33.873Z,101080
2022-08-23T00:39:00.172Z,101080
2022-08-23T00:40:00.499Z,101080
2022-08-23T00:41:00.813Z,101080
2022-08-23T00:42:05.876Z,101090
2022-08-23T00:43:05.832Z,101090
2022-08-23T00:44:00.473Z,101090
2022-08-23T00:45:01.757Z,101090
2022-08-23T00:46:10.095Z,101080
2022-08-23T00:47:00.607Z,101080
2022-08-23T00:48:01.405Z,101090
2022-08-23T00:49:02.572Z,101090
2022-08-23T00:50:23.598Z,101080
2022-08-23T00:51:00.142Z,101080
2022-08-23T00:52:03.666Z,101090
2022-08-23T00:53:10.094Z,101090
2022-08-23T00:54:01.453Z,101090
2022-08-23T00:55:00.532Z,101090
2022-08-23T00:56:01.290Z,101090
2022-08-23T00:57:01.505Z,101090
2022-08-23T00:58:00.647Z,101090
2022-08-23T00:59:00.370Z,101090
2022-08-23T01:00:00.166Z,101090
2022-08-23T01:01:01.572Z,101090
2022-08-23T01:02:00.658Z,101090
2022-08-23T01:03:01.415Z,101090
2022-08-23T01:04:04.813Z,101090
2022-08-23T01:05:00.461Z,101090
2022-08-23T01:06:10.128Z,101090
2022-08-23T01:07:03.116Z,101090
2022-08-23T01:08:00.439Z,101090
2022-08-23T01:09:02.677Z,101090
2022-08-23T01:10:03.447Z,101090
2022-08-23T01:11:08.744Z,101090
2022-08-23T01:12:07.655Z,101090
2022-08-23T01:13:04.919Z,101090
2022-08-23T01:14:05.310Z,101090
2022-08-23T01:15:02.715Z,101090
2022-08-23T01:16:04.770Z,101100
2022-08-23T01:17:02.481Z,101100
2022-08-23T01:18:02.118Z,101100
2022-08-23T01:19:01.639Z,101100
2022-08-23T01:20:10.327Z,101100
2022-08-23T01:21:10.318Z,101100
2022-08-23T01:22:06.896Z,101100
2022-08-23T01:23:05.328Z,101100
2022-08-23T01:24:01.352Z,101100
2022-08-23T01:25:07.853Z,101100
2022-08-23T01:26:00.414Z,101090
2022-08-23T01:27:00.335Z,101090
2022-08-23T01:28:00.444Z,101090
2022-08-23T01:29:01.117Z,101090
2022-08-23T01:30:00.232Z,101090
2022-08-23T01:31:00.798Z,101090
2022-08-23T01:32:00.211Z,101100
2022-08-23T01:33:02.216Z,101100
2022-08-23T01:34:02.071Z,101090
2022-08-23T01:35:00.206Z,101090
2022-08-23T01:36:00.449Z,101090
2022-08-23T01:37:00.193Z,101090
2022-08-23T01:38:00.305Z,101090
2022-08-23T01:39:00.892Z,101090
2022-08-23T01:40:00.322Z,101090
2022-08-23T01:41:00.245Z,101090
2022-08-23T01:42:00.213Z,101090
2022-08-23T01:43:00.371Z,101090
2022-08-23T01:44:00.171Z,101090
2022-08-23T01:45:00.253Z,101090
2022-08-23T01:46:10.105Z,101090
2022-08-23T01:47:00.245Z,101090
2022-08-23T01:48:00.487Z,101090
2022-08-23T01:49:02.347Z,101090
2022-08-23T01:50:00.170Z,101090
2022-08-23T01:51:00.155Z,101090
2022-08-23T01:52:00.156Z,101090
2022-08-23T01:53:00.799Z,101090
2022-08-23T01:54:00.153Z,101090
2022-08-23T01:55:00.219Z,101090
2022-08-23T01:56:00.351Z,101090
2022-08-23T01:57:00.159Z,101090
2022-08-23T01:58:02.042Z,101090
2022-08-23T01:59:00.690Z,101090
2022-08-23T02:00:00.530Z,101090
2022-08-23T02:01:00.738Z,101090
2022-08-23T02:02:00.211Z,101080
2022-08-23T02:03:01.253Z,101080
2022-08-23T02:04:01.200Z,101080
2022-08-23T02:05:00.163Z,101080
2022-08-23T02:06:00.173Z,101080
2022-08-23T02:07:00.158Z,101080
2022-08-23T02:08:00.366Z,101090
2022-08-23T02:09:00.158Z,101090
2022-08-23T02:10:00.151Z,101090
2022-08-23T02:11:06.576Z,101090
2022-08-23T02:12:00.173Z,101090
2022-08-23T02:13:00.155Z,101090
2022-08-23T02:14:02.756Z,101090
2022-08-23T02:15:00.153Z,101090
2022-08-23T02:16:00.212Z,101090
2022-08-23T02:17:04.213Z,101090
2022-08-23T02:18:00.270Z,101090
2022-08-23T02:19:01.107Z,101090
2022-08-23T02:20:00.385Z,101090
2022-08-23T02:21:00.509Z,101090
2022-08-23T02:22:00.607Z,101090
2022-08-23T02:23:00.293Z,101090
2022-08-23T02:24:05.267Z,101090
2022-08-23T02:25:00.212Z,101090
2022-08-23T02:26:00.162Z,101090
2022-08-23T02:27:01.921Z,101090
2022-08-23T02:28:00.151Z,101090
2022-08-23T02:29:00.145Z,101090
2022-08-23T02:30:00.154Z,101090
2022-08-23T02:31:00.191Z,101090
2022-08-23T02:32:00.431Z,101090
2022-08-23T02:33:00.679Z,101090
2022-08-23T02:34:00.290Z,101090
2022-08-23T02:35:04.979Z,101090
2022-08-23T02:36:00.168Z,101090
2022-08-23T02:37:00.177Z,101090
2022-08-23T02:38:04.267Z,101090
2022-08-23T02:39:00.178Z,101090
2022-08-23T02:40:00.310Z,101090
2022-08-23T02:41:00.821Z,101090
2022-08-23T02:42:00.304Z,101090
2022-08-23T02:43:00.427Z,101090
2022-08-23T02:44:00.242Z,101090
2022-08-23T02:45:00.162Z,101090
2022-08-23T02:46:00.157Z,101090
2022-08-23T02:47:00.840Z,101090
2022-08-23T02:48:00.485Z,101090
2022-08-23T02:49:00.173Z,101090
2022-08-23T02:50:00.162Z,101090
2022-08-23T02:51:01.079Z,101090
2022-08-23T02:52:00.319Z,101100
2022-08-23T02:53:00.159Z,101100
2022-08-23T02:54:00.417Z,101100
2022-08-23T02:55:00.167Z,101100
2022-08-23T02:56:00.160Z,101100
2022-08-23T02:57:00.608Z,101100
2022-08-23T02:58:00.425Z,101110
2022-08-23T02:59:00.482Z,101110
2022-08-23T03:00:00.234Z,101110
2022-08-23T03:01:00.177Z,101110
2022-08-23T03:02:00.241Z,101110
2022-08-23T03:03:00.149Z,101110
2022-08-23T03:04:00.910Z,101110
2022-08-23T03:05:00.155Z,101110
2022-08-23T03:06:24.154Z,101120
2022-08-23T03:07:00.180Z,101120
2022-08-23T03:08:00.309Z,101120
2022-08-23T03:09:00.167Z,101120
2022-08-23T03:10:00.683Z,101120
2022-08-23T03:11:00.155Z,101120
2022-08-23T03:12:00.150Z,101130
2022-08-23T03:13:00.405Z,101130
2022-08-23T03:14:00.415Z,101130
2022-08-23T03:15:00.155Z,101130
2022-08-23T03:16:00.146Z,101130
2022-08-23T03:17:00.162Z,101130
2022-08-23T03:18:00.397Z,101130
2022-08-23T03:19:00.157Z,101130
2022-08-23T03:20:00.154Z,101130
2022-08-23T03:21:00.181Z,101130
2022-08-23T03:22:00.158Z,101130
2022-08-23T03:23:00.610Z,101130
2022-08-23T03:24:00.265Z,101130
2022-08-23T03:25:00.199Z,101130
2022-08-23T03:26:01.095Z,101130
2022-08-23T03:27:00.162Z,101130
2022-08-23T03:28:02.289Z,101140
2022-08-23T03:29:00.504Z,101140
2022-08-23T03:30:00.154Z,101140
2022-08-23T03:31:00.176Z,101140
2022-08-23T03:32:00.319Z,101130
2022-08-23T03:33:00.454Z,101130
2022-08-23T03:34:00.359Z,101140
2022-08-23T03:35:00.230Z,101140
2022-08-23T03:36:00.889Z,101140
2022-08-23T03:37:00.245Z,101140
2022-08-23T03:38:00.282Z,101140
2022-08-23T03:39:00.158Z,101140
2022-08-23T03:40:00.350Z,101140
2022-08-23T03:41:00.502Z,101140
2022-08-23T03:42:00.153Z,101140
2022-08-23T03:43:00.542Z,101140
2022-08-23T03:44:00.751Z,101140
2022-08-23T03:45:02.417Z,101140
2022-08-23T03:46:00.223Z,101150
2022-08-23T03:47:00.167Z,101150
2022-08-23T03:48:00.345Z,101150
2022-08-23T03:49:00.724Z,101150
2022-08-23T03:50:00.205Z,101150
2022-08-23T03:51:00.282Z,101150
2022-08-23T03:52:00.150Z,101140
2022-08-23T03:53:00.201Z,101140
2022-08-23T03:54:00.636Z,101140
2022-08-23T03:55:00.148Z,101140
2022-08-23T03:56:00.144Z,101150
2022-08-23T03:57:01.822Z,101150
2022-08-23T03:58:00.316Z,101140
2022-08-23T03:59:02.727Z,101140
2022-08-23T04:00:00.183Z,101150
2022-08-23T04:01:00.153Z,101150
2022-08-23T04:02:00.317Z,101150
2022-08-23T04:03:00.177Z,101150
2022-08-23T04:04:00.268Z,101150
2022-08-23T04:05:00.205Z,101150
2022-08-23T04:06:00.150Z,101150
2022-08-23T04:07:00.152Z,101150
2022-08-23T04:08:05.073Z,101160
2022-08-23T04:09:00.152Z,101160
2022-08-23T04:10:00.460Z,101160
2022-08-23T04:11:00.636Z,101160
2022-08-23T04:12:00.184Z,101150
2022-08-23T04:13:00.164Z,101150
2022-08-23T04:14:00.171Z,101150
2022-08-23T04:15:02.375Z,101150
2022-08-23T04:16:00.152Z,101150
2022-08-23T04:17:00.157Z,101150
2022-08-23T04:18:00.421Z,101150
2022-08-23T04:19:00.165Z,101150
2022-08-23T04:20:00.151Z,101160
2022-08-23T04:21:01.710Z,101160
2022-08-23T04:22:00.163Z,101160
2022-08-23T04:23:00.160Z,101160
2022-08-23T04:24:00.154Z,101160
2022-08-23T04:25:00.180Z,101160
2022-08-23T04:26:00.158Z,101160
2022-08-23T04:27:00.164Z,101160
2022-08-23T04:28:00.511Z,101150
2022-08-23T04:29:00.388Z,101150
2022-08-23T04:30:00.171Z,101160
2022-08-23T04:31:00.881Z,101160
2022-08-23T04:32:00.788Z,101150
2022-08-23T04:33:01.627Z,101150
2022-08-23T04:34:00.823Z,101160
2022-08-23T04:35:00.153Z,101160
2022-08-23T04:36:00.603Z,101150
2022-08-23T04:37:00.591Z,101150
2022-08-23T04:38:00.451Z,101160
2022-08-23T04:39:00.157Z,101160
2022-08-23T04:40:00.269Z,101160
2022-08-23T04:41:00.210Z,101160
2022-08-23T04:42:00.148Z,101160
2022-08-23T04:43:00.411Z,101160
2022-08-23T04:44:00.365Z,101160
2022-08-23T04:45:00.156Z,101160
2022-08-23T04:46:00.151Z,101160
2022-08-23T04:47:00.290Z,101160
2022-08-23T04:48:00.367Z,101160
2022-08-23T04:49:00.351Z,101160
2022-08-23T04:50:00.168Z,101160
2022-08-23T04:51:00.523Z,101160
2022-08-23T04:52:00.170Z,101160
2022-08-23T04:53:00.364Z,101160
2022-08-23T04:54:00.627Z,101160
2022-08-23T04:55:00.145Z,101160
2022-08-23T04:56:00.982Z,101170
2022-08-23T04:57:00.160Z,101170
2022-08-23T04:58:00.326Z,101170
2022-08-23T04:59:00.238Z,101170
2022-08-23T05:00:00.179Z,101170
2022-08-23T05:01:00.879Z,101170
2022-08-23T05:02:00.161Z,101180
2022-08-23T05:03:00.216Z,101180
2022-08-23T05:04:00.984Z,101180
2022-08-23T05:05:00.165Z,101180
2022-08-23T05:06:00.457Z,101170
2022-08-23T05:07:00.151Z,101170
2022-08-23T05:08:00.301Z,101180
2022-08-23T05:09:00.173Z,101180
2022-08-23T05:10:00.183Z,101180
2022-08-23T05:11:01.154Z,101180
2022-08-23T05:12:00.152Z,101170
2022-08-23T05:13:00.194Z,101170
2022-08-23T05:14:00.211Z,101180
2022-08-23T05:15:00.591Z,101180
2022-08-23T05:16:00.539Z,101180
2022-08-23T05:17:00.157Z,101180
2022-08-23T05:18:00.364Z,101180
2022-08-23T05:19:00.180Z,101180
2022-08-23T05:20:00.254Z,101180
2022-08-23T05:21:00.183Z,101180
2022-08-23T05:22:00.284Z,101180
2022-08-23T05:23:00.165Z,101180
2022-08-23T05:24:00.147Z,101180
2022-08-23T05:25:00.377Z,101180
2022-08-23T05:26:00.199Z,101180
2022-08-23T05:27:00.165Z,101180
2022-08-23T05:28:00.407Z,101180
2022-08-23T05:29:00.290Z,101180
2022-08-23T05:30:00.892Z,101180
2022-08-23T05:31:05.628Z,101180
2022-08-23T05:32:00.385Z,101180
2022-08-23T05:33:00.149Z,101180
2022-08-23T05:34:00.516Z,101180
2022-08-23T05:35:00.182Z,101180
2022-08-23T05:36:00.976Z,101180
2022-08-23T05:37:00.239Z,101180
2022-08-23T05:38:00.359Z,101180
2022-08-23T05:39:00.190Z,101180
2022-08-23T05:40:00.299Z,101190
2022-08-23T05:41:00.381Z,101190
2022-08-23T05:42:00.301Z,101190
2022-08-23T05:43:00.331Z,101190
2022-08-23T05:44:00.218Z,101190
2022-08-23T05:45:00.156Z,101190
2022-08-23T05:46:03.653Z,101200
2022-08-23T05:47:00.146Z,101200
2022-08-23T05:48:00.151Z,101210
2022-08-23T05:49:00.150Z,101210
2022-08-23T05:50:00.173Z,101210
2022-08-23T05:51:10.090Z,101210
2022-08-23T05:52:01.317Z,101210
2022-08-23T05:53:00.152Z,101210
2022-08-23T05:54:01.676Z,101220
2022-08-23T05:55:00.164Z,101220
2022-08-23T05:56:10.087Z,101220
2022-08-23T05:57:00.266Z,101220
2022-08-23T05:58:00.358Z,101220
2022-08-23T05:59:02.327Z,101220
2022-08-23T06:00:00.248Z,101220
2022-08-23T06:01:00.227Z,101220
2022-08-23T06:02:00.157Z,101220
2022-08-23T06:03:00.144Z,101220
2022-08-23T06:04:02.293Z,101220
2022-08-23T06:05:00.146Z,101220
2022-08-23T06:06:00.417Z,101220
2022-08-23T06:07:00.254Z,101220
2022-08-23T06:08:00.348Z,101220
2022-08-23T06:09:00.642Z,101220
2022-08-23T06:10:00.678Z,101230
2022-08-23T06:11:05.539Z,101230
2022-08-23T06:12:00.440Z,101220
2022-08-23T06:13:00.896Z,101220
2022-08-23T06:14:01.513Z,101220
2022-08-23T06:15:00.296Z,101220
2022-08-23T06:16:00.174Z,101230
2022-08-23T06:17:00.152Z,101230
2022-08-23T06:18:00.307Z,101230
2022-08-23T06:19:01.161Z,101230
2022-08-23T06:20:00.284Z,101230
2022-08-23T06:21:02.742Z,101230
2022-08-23T06:22:00.150Z,101230
2022-08-23T06:23:00.157Z,101230
2022-08-23T06:24:00.561Z,101230
2022-08-23T06:25:00.167Z,101230
2022-08-23T06:26:00.297Z,101230
2022-08-23T06:27:00.162Z,101230
2022-08-23T06:28:00.445Z,101230
2022-08-23T06:29:01.644Z,101230
2022-08-23T06:30:00.215Z,101230
2022-08-23T06:31:00.248Z,101230
2022-08-23T06:32:00.149Z,101230
2022-08-23T06:33:00.147Z,101230
2022-08-23T06:34:00.201Z,101220
2022-08-23T06:35:18.983Z,101220
2022-08-23T06:36:06.122Z,101220
2022-08-23T06:37:01.636Z,101220
2022-08-23T06:38:02.321Z,101220
2022-08-23T06:39:00.152Z,101220
2022-08-23T06:40:00.288Z,101220
2022-08-23T06:41:02.232Z,101220
2022-08-23T06:42:10.117Z,101220
2022-08-23T06:43:00.163Z,101220
2022-08-23T06:44:00.200Z,101220
2022-08-23T06:45:00.184Z,101220
2022-08-23T06:46:08.548Z,101230
2022-08-23T06:47:00.731Z,101230
2022-08-23T06:48:00.339Z,101220
2022-08-23T06:49:00.170Z,101220
2022-08-23T06:50:00.157Z,101230
2022-08-23T06:51:00.400Z,101230
2022-08-23T06:52:00.785Z,101230
2022-08-23T06:53:00.148Z,101230
2022-08-23T06:54:03.102Z,101230
2022-08-23T06:55:00.161Z,101230
2022-08-23T06:56:00.146Z,101220
2022-08-23T06:57:00.707Z,101220
2022-08-23T06:58:00.323Z,101220
2022-08-23T06:59:00.612Z,101220
2022-08-23T07:00:00.166Z,101220
2022-08-23T07:01:18.846Z,101220
2022-08-23T07:02:02.059Z,101220
2022-08-23T07:03:00.599Z,101220
2022-08-23T07:04:00.920Z,101230
2022-08-23T07:05:00.157Z,101230
2022-08-23T07:06:00.166Z,101230
2022-08-23T07:07:00.462Z,101230
2022-08-23T07:08:00.184Z,101220
2022-08-23T07:09:00.229Z,101220
2022-08-23T07:10:00.168Z,101230
2022-08-23T07:11:00.188Z,101230
2022-08-23T07:12:00.719Z,101230
2022-08-23T07:13:01.458Z,101230
2022-08-23T07:14:01.259Z,101230
2022-08-23T07:15:00.174Z,101230
2022-08-23T07:16:00.236Z,101230
2022-08-23T07:17:00.772Z,101230
2022-08-23T07:18:00.152Z,101230
2022-08-23T07:19:00.153Z,101230
2022-08-23T07:20:00.154Z,101230
2022-08-23T07:21:01.078Z,101230
2022-08-23T07:22:01.197Z,101230
2022-08-23T07:23:00.350Z,101230
2022-08-23T07:24:00.228Z,101230
2022-08-23T07:25:00.199Z,101230
2022-08-23T07:26:01.236Z,101230
2022-08-23T07:27:01.163Z,101230
2022-08-23T07:28:00.342Z,101230
2022-08-23T07:29:01.765Z,101230
2022-08-23T07:30:00.198Z,101240
2022-08-23T07:31:12.401Z,101240
2022-08-23T07:32:00.404Z,101240
2022-08-23T07:33:00.360Z,101240
2022-08-23T07:34:01.915Z,101240
2022-08-23T07:35:00.153Z,101240
2022-08-23T07:36:00.147Z,101240
2022-08-23T07:37:00.157Z,101240
2022-08-23T07:38:00.393Z,101240
2022-08-23T07:39:00.675Z,101240
2022-08-23T07:40:00.248Z,101240
2022-08-23T07:41:00.976Z,101240
2022-08-23T07:42:00.684Z,101240
2022-08-23T07:43:00.342Z,101240
2022-08-23T07:44:01.508Z,101250
2022-08-23T07:45:00.143Z,101250
2022-08-23T07:46:00.448Z,101250
2022-08-23T07:47:00.839Z,101250
2022-08-23T07:48:01.076Z,101250
2022-08-23T07:49:00.807Z,101250
2022-08-23T07:50:00.308Z,101260
2022-08-23T07:51:02.175Z,101260
2022-08-23T07:52:00.200Z,101260
2022-08-23T07:53:00.162Z,101260
2022-08-23T07:54:01.283Z,101260
2022-08-23T07:55:00.236Z,101260
2022-08-23T07:56:03.445Z,101260
2022-08-23T07:57:00.154Z,101260
2022-08-23T07:58:00.421Z,101260
2022-08-23T07:59:00.163Z,101260
2022-08-23T08:00:00.163Z,101260
2022-08-23T08:01:10.094Z,101260
2022-08-23T08:02:00.250Z,101260
2022-08-23T08:03:00.297Z,101260
2022-08-23T08:04:00.930Z,101260
2022-08-23T08:05:00.159Z,101260
2022-08-23T08:06:04.807Z,101270
2022-08-23T08:07:18.277Z,101270
2022-08-23T08:08:00.746Z,101270
2022-08-23T08:09:00.493Z,101270
2022-08-23T08:10:00.170Z,101270
2022-08-23T08:11:00.160Z,101270
2022-08-23T08:12:00.181Z,101270
2022-08-23T08:13:00.144Z,101270
2022-08-23T08:14:01.638Z,101270
2022-08-23T08:15:00.213Z,101270
2022-08-23T08:16:00.348Z,101270
2022-08-23T08:17:00.154Z,101270
2022-08-23T08:18:00.565Z,101270
2022-08-23T08:19:01.820Z,101270
2022-08-23T08:20:00.179Z,101270
2022-08-23T08:21:00.170Z,101270
2022-08-23T08:22:00.151Z,101270
2022-08-23T08:23:00.502Z,101270
2022-08-23T08:24:00.437Z,101280
2022-08-23T08:25:00.147Z,101280
2022-08-23T08:26:01.266Z,101280
2022-08-23T08:27:00.289Z,101280
2022-08-23T08:28:00.282Z,101270
2022-08-23T08:29:00.228Z,101270
2022-08-23T08:30:00.199Z,101280
2022-08-23T08:31:00.545Z,101280
2022-08-23T08:32:00.177Z,101280
2022-08-23T08:33:00.524Z,101280
2022-08-23T08:34:00.160Z,101280
2022-08-23T08:35:00.296Z,101280
2022-08-23T08:36:02.809Z,101280
2022-08-23T08:37:00.164Z,101280
2022-08-23T08:38:01.041Z,101290
2022-08-23T08:39:01.698Z,101290
2022-08-23T08:40:00.240Z,101280
2022-08-23T08:41:05.496Z,101280
2022-08-23T08:42:10.089Z,101280
2022-08-23T08:43:07.046Z,101280
2022-08-23T08:44:07.192Z,101290
2022-08-23T08:45:08.140Z,101290
2022-08-23T08:46:03.414Z,101290
2022-08-23T08:47:05.261Z,101290
2022-08-23T08:48:04.420Z,101280
2022-08-23T08:49:00.919Z,101280
2022-08-23T08:50:08.107Z,101280
2022-08-23T08:51:02.778Z,101280
2022-08-23T08:52:03.454Z,101280
2022-08-23T08:53:03.040Z,101280
2022-08-23T08:54:02.317Z,101290
2022-08-23T08:55:03.562Z,101290
2022-08-23T08:56:02.491Z,101290
2022-08-23T08:57:00.367Z,101290
2022-08-23T08:58:01.315Z,101290
2022-08-23T08:59:01.963Z,101290
2022-08-23T09:00:02.961Z,101290
2022-08-23T09:01:00.149Z,101290
2022-08-23T09:02:00.311Z,101290
2022-08-23T09:03:03.293Z,101290
2022-08-23T09:04:01.121Z,101290
2022-08-23T09:05:02.623Z,101290
2022-08-23T09:06:00.142Z,101290
2022-08-23T09:07:00.125Z,101290
2022-08-23T09:08:10.092Z,101290
2022-08-23T09:09:10.092Z,101290
2022-08-23T09:10:07.617Z,101290
2022-08-23T09:11:07.879Z,101300
2022-08-23T09:12:06.015Z,101300
2022-08-23T09:13:03.403Z,101300
2022-08-23T09:14:00.140Z,101290
2022-08-23T09:15:10.098Z,101290
2022-08-23T09:16:10.125Z,101290
2022-08-23T09:17:02.287Z,101290
2022-08-23T09:18:09.766Z,101290
2022-08-23T09:19:00.789Z,101290
2022-08-23T09:20:01.917Z,101290
2022-08-23T09:21:00.471Z,101290
2022-08-23T09:22:06.628Z,101290
2022-08-23T09:23:09.970Z,101290
2022-08-23T09:24:01.216Z,101290
2022-08-23T09:25:00.180Z,101290
2022-08-23T09:26:03.744Z,101290
2022-08-23T09:27:01.012Z,101290
2022-08-23T09:28:00.337Z,101290
2022-08-23T09:29:03.680Z,101290
2022-08-23T09:30:00.219Z,101290
2022-08-23T09:31:00.275Z,101290
2022-08-23T09:32:01.742Z,101290
2022-08-23T09:33:10.092Z,101290
2022-08-23T09:34:00.171Z,101290
2022-08-23T09:35:10.107Z,101290
2022-08-23T09:36:10.090Z,101290
2022-08-23T09:37:07.546Z,101290
2022-08-23T09:38:01.716Z,101290
2022-08-23T09:39:02.400Z,101290
2022-08-23T09:40:10.124Z,101300
2022-08-23T09:41:00.374Z,101300
2022-08-23T09:42:00.183Z,101290
2022-08-23T09:43:01.947Z,101290
2022-08-23T09:44:00.150Z,101290
2022-08-23T09:45:00.153Z,101290
2022-08-23T09:46:00.813Z,101300
2022-08-23T09:47:03.865Z,101300
2022-08-23T09:48:00.270Z,101300
2022-08-23T09:49:10.088Z,101290
2022-08-23T09:50:10.104Z,101290
2022-08-23T09:51:05.988Z,101290
2022-08-23T09:52:10.097Z,101290
2022-08-23T09:53:00.345Z,101290
2022-08-23T09:54:04.620Z,101290
2022-08-23T09:55:03.068Z,101290
2022-08-23T09:56:10.079Z,101300
2022-08-23T09:57:01.823Z,101300
2022-08-23T09:58:02.416Z,101290
2022-08-23T09:59:00.576Z,101290
2022-08-23T10:00:10.097Z,101290
2022-08-23T10:01:07.201Z,101290
2022-08-23T10:02:02.071Z,101290
2022-08-23T10:03:10.092Z,101290
2022-08-23T10:04:10.189Z,101290
2022-08-23T10:05:01.221Z,101290
2022-08-23T10:06:00.936Z,101280
2022-08-23T10:07:00.166Z,101280
2022-08-23T10:08:00.832Z,101280
2022-08-23T10:09:00.241Z,101280
2022-08-23T10:10:10.096Z,101280
2022-08-23T10:11:06.824Z,101280
2022-08-23T10:12:00.395Z,101280
2022-08-23T10:13:00.719Z,101280
2022-08-23T10:14:00.238Z,101280
2022-08-23T10:15:00.159Z,101280
2022-08-23T10:16:07.273Z,101280
2022-08-23T10:17:08.721Z,101280
2022-08-23T10:18:04.071Z,101280
2022-08-23T10:19:05.640Z,101280
2022-08-23T10:20:10.094Z,101280
2022-08-23T10:21:07.424Z,101280
2022-08-23T10:22:04.199Z,101280
2022-08-23T10:23:05.991Z,101280
2022-08-23T10:24:07.659Z,101270
2022-08-23T10:25:06.078Z,101270
2022-08-23T10:26:00.365Z,101280
2022-08-23T10:27:01.142Z,101280
2022-08-23T10:28:00.409Z,101270
2022-08-23T10:29:07.421Z,101270
2022-08-23T10:30:03.935Z,101270
2022-08-23T10:31:10.143Z,101270
2022-08-23T10:32:10.092Z,101270
2022-08-23T10:33:10.093Z,101280
2022-08-23T10:34:10.090Z,101280
2022-08-23T10:35:10.098Z,101280
2022-08-23T10:36:10.097Z,101280
2022-08-23T10:37:10.093Z,101270
2022-08-23T10:38:08.969Z,101270
2022-08-23T10:39:02.038Z,101270
2022-08-23T10:40:03.931Z,101270
2022-08-23T10:41:10.090Z,101280
2022-08-23T10:42:06.925Z,101280
2022-08-23T10:43:07.006Z,101280
2022-08-23T10:44:00.132Z,101280
2022-08-23T10:45:06.967Z,101280
2022-08-23T10:46:00.787Z,101280
2022-08-23T10:47:09.143Z,101270
2022-08-23T10:48:10.095Z,101270
2022-08-23T10:49:00.358Z,101270
2022-08-23T10:50:03.354Z,101270
2022-08-23T10:51:01.942Z,101270
2022-08-23T10:52:02.021Z,101280
2022-08-23T10:53:04.457Z,101280
2022-08-23T10:54:02.669Z,101270
2022-08-23T10:55:03.130Z,101270
2022-08-23T10:56:00.185Z,101270
2022-08-23T10:57:01.337Z,101270
2022-08-23T10:58:02.366Z,101270
2022-08-23T10:59:00.133Z,101270
2022-08-23T11:00:02.449Z,101270
2022-08-23T11:01:00.825Z,101270
2022-08-23T11:02:10.187Z,101260
2022-08-23T11:03:03.495Z,101260
2022-08-23T11:04:10.088Z,101270
2022-08-23T11:05:00.155Z,101270
2022-08-23T11:06:10.090Z,101270
2022-08-23T11:07:10.095Z,101270
2022-08-23T11:08:00.324Z,101270
2022-08-23T11:09:05.290Z,101270
2022-08-23T11:10:16.644Z,101270
2022-08-23T11:11:00.191Z,101270
2022-08-23T11:12:11.184Z,101270
2022-08-23T11:13:03.803Z,101270
2022-08-23T11:14:00.199Z,101270
2022-08-23T11:15:01.156Z,101270
2022-08-23T11:16:01.214Z,101280
2022-08-23T11:17:01.648Z,101280
2022-08-23T11:18:01.867Z,101270
2022-08-23T11:19:00.176Z,101270
2022-08-23T11:20:02.741Z,101270
2022-08-23T11:21:02.295Z,101270
2022-08-23T11:22:10.101Z,101270
2022-08-23T11:23:00.145Z,101270
2022-08-23T11:24:00.137Z,101260
2022-08-23T11:25:02.747Z,101260
2022-08-23T11:26:00.738Z,101270
2022-08-23T11:27:05.797Z,101270
2022-08-23T11:28:10.096Z,101260
2022-08-23T11:29:07.548Z,101260
2022-08-23T11:30:10.141Z,101260
2022-08-23T11:31:07.675Z,101260
2022-08-23T11:32:01.135Z,101270
2022-08-23T11:33:08.182Z,101270
2022-08-23T11:34:03.251Z,101270
2022-08-23T11:35:05.286Z,101270
2022-08-23T11:36:07.644Z,101270
2022-08-23T11:37:10.089Z,101270
2022-08-23T11:38:04.246Z,101270
2022-08-23T11:39:02.626Z,101270
2022-08-23T11:40:01.335Z,101270
2022-08-23T11:41:10.009Z,101270
2022-08-23T11:42:02.200Z,101270
2022-08-23T11:43:04.854Z,101270
2022-08-23T11:44:01.143Z,101270
2022-08-23T11:45:00.318Z,101270
2022-08-23T11:46:10.129Z,101270
2022-08-23T11:47:01.422Z,101270
2022-08-23T11:48:09.701Z,101260
2022-08-23T11:49:10.092Z,101270
2022-08-23T11:50:10.162Z,101270
2022-08-23T11:51:05.340Z,101270
2022-08-23T11:52:10.615Z,101260
2022-08-23T11:53:10.102Z,101260
2022-08-23T11:54:10.099Z,101260
2022-08-23T11:55:10.091Z,101260
2022-08-23T11:56:00.138Z,101260
2022-08-23T11:57:06.447Z,101260
2022-08-23T11:58:00.308Z,101260
2022-08-23T11:59:10.090Z,101260
2022-08-23T12:00:05.376Z,101260
2022-08-23T12:01:10.087Z,101260
2022-08-23T12:02:15.469Z,101260
2022-08-23T12:03:02.903Z,101260
2022-08-23T12:04:02.203Z,101260
2022-08-23T12:05:06.494Z,101260
2022-08-23T12:06:06.891Z,101270
2022-08-23T12:07:00.408Z,101270
2022-08-23T12:08:00.273Z,101260
2022-08-23T12:09:02.615Z,101260
2022-08-23T12:10:00.298Z,101260
2022-08-23T12:11:02.370Z,101260
2022-08-23T12:12:00.132Z,101260
2022-08-23T12:13:10.091Z,101260
2022-08-23T12:14:10.330Z,101260
2022-08-23T12:15:04.876Z,101260
2022-08-23T12:16:16.218Z,101260
2022-08-23T12:17:04.056Z,101260
2022-08-23T12:18:10.090Z,101260
2022-08-23T12:19:01.726Z,101260
2022-08-23T12:20:03.379Z,101260
2022-08-23T12:21:01.941Z,101260
2022-08-23T12:22:10.091Z,101260
2022-08-23T12:23:03.158Z,101260
2022-08-23T12:24:02.298Z,101270
2022-08-23T12:25:02.210Z,101270
2022-08-23T12:26:05.929Z,101260
2022-08-23T12:27:00.132Z,101260
2022-08-23T12:28:09.539Z,101260